createdAt,value
2019-05-14T00:00:13.849Z,5.20
2019-05-14T00:02:43.250Z,5.30
2019-05-14T00:05:12.782Z,5.00
2019-05-14T00:07:42.566Z,4.80
2019-05-14T00:10:12.664Z,5.47
2019-05-14T00:12:42.152Z,4.60
2019-05-14T00:15:12.155Z,4.80
2019-05-14T00:17:41.884Z,5.47
2019-05-14T00:20:13.303Z,4.40
2019-05-14T00:22:42.870Z,4.73
2019-05-14T00:25:12.398Z,4.30
2019-05-14T00:27:42.155Z,4.30
2019-05-14T00:30:12.135Z,4.53
2019-05-14T00:32:43.136Z,5.00
2019-05-14T00:35:12.614Z,4.60
2019-05-14T00:37:42.096Z,4.07
2019-05-14T00:40:12.102Z,4.20
2019-05-14T00:42:41.748Z,4.70
2019-05-14T00:45:11.848Z,5.53
2019-05-14T00:47:42.003Z,5.00
2019-05-14T00:50:12.208Z,5.17
2019-05-14T00:52:44.221Z,5.30
2019-05-14T00:55:13.164Z,5.13
2019-05-14T00:57:42.859Z,5.70
2019-05-14T01:00:12.721Z,5.63
2019-05-14T01:02:42.225Z,5.97
2019-05-14T01:05:12.436Z,6.33
2019-05-14T01:07:42.522Z,6.00
2019-05-14T01:10:12.939Z,5.80
2019-05-14T01:12:42.381Z,5.93
2019-05-14T01:15:14.197Z,6.00
2019-05-14T01:17:44.077Z,5.60
2019-05-14T01:20:13.800Z,6.23
2019-05-14T01:22:43.239Z,5.67
2019-05-14T01:25:13.224Z,5.90
2019-05-14T01:27:42.826Z,5.97
2019-05-14T01:30:12.763Z,6.20
2019-05-14T01:32:42.470Z,6.13
2019-05-14T01:35:12.251Z,5.43
2019-05-14T01:37:41.905Z,5.83
2019-05-14T01:40:11.679Z,5.43
2019-05-14T01:42:41.796Z,5.70
2019-05-14T01:45:24.396Z,5.80
2019-05-14T01:47:42.947Z,5.83
2019-05-14T01:50:12.705Z,5.77
2019-05-14T01:52:42.613Z,6.30
2019-05-14T01:55:12.355Z,5.60
2019-05-14T01:57:42.480Z,6.40
2019-05-14T02:00:12.597Z,6.00
2019-05-14T02:02:42.044Z,6.13
2019-05-14T02:05:12.522Z,5.13
2019-05-14T02:07:42.294Z,6.13
2019-05-14T02:10:12.878Z,5.93
2019-05-14T02:12:45.268Z,5.50
2019-05-14T02:15:15.490Z,5.77
2019-05-14T02:17:45.001Z,5.93
2019-05-14T02:20:15.072Z,5.53
2019-05-14T02:22:44.631Z,5.60
2019-05-14T02:25:14.608Z,5.37
2019-05-14T02:27:44.322Z,5.30
2019-05-14T02:30:13.971Z,5.40
2019-05-14T02:32:43.475Z,5.43
2019-05-14T02:35:13.050Z,5.30
2019-05-14T02:37:43.041Z,5.20
2019-05-14T02:40:14.054Z,6.17
2019-05-14T02:42:44.141Z,5.17
2019-05-14T02:45:14.026Z,5.03
2019-05-14T02:47:43.419Z,4.90
2019-05-14T02:50:13.529Z,5.20
2019-05-14T02:52:42.959Z,5.70
2019-05-14T02:55:12.674Z,5.43
2019-05-14T02:57:42.218Z,5.17
2019-05-14T03:00:13.768Z,5.43
2019-05-14T03:02:43.199Z,5.83
2019-05-14T03:05:13.152Z,6.37
2019-05-14T03:07:42.570Z,6.17
2019-05-14T03:10:12.506Z,4.97
2019-05-14T03:12:42.070Z,5.20
2019-05-14T03:15:12.822Z,5.03
2019-05-14T03:17:42.355Z,4.77
2019-05-14T03:20:12.167Z,5.33
2019-05-14T03:22:55.849Z,5.73
2019-05-14T03:25:13.122Z,5.93
2019-05-14T03:27:42.732Z,4.67
2019-05-14T03:30:13.987Z,4.73
2019-05-14T03:32:43.687Z,4.60
2019-05-14T03:35:14.525Z,4.87
2019-05-14T03:37:44.463Z,5.10
2019-05-14T03:40:14.116Z,4.67
2019-05-14T03:42:43.582Z,4.73
2019-05-14T03:45:13.469Z,4.47
2019-05-14T03:47:43.206Z,4.87
2019-05-14T03:50:12.887Z,4.53
2019-05-14T03:52:42.454Z,4.67
2019-05-14T03:55:12.313Z,5.20
2019-05-14T03:57:41.791Z,5.40
2019-05-14T04:00:11.834Z,4.63
2019-05-14T04:02:41.272Z,3.97
2019-05-14T04:05:11.419Z,4.20
2019-05-14T04:07:42.813Z,4.40
2019-05-14T04:10:13.051Z,4.30
2019-05-14T04:12:45.119Z,4.30
2019-05-14T04:15:14.582Z,3.93
2019-05-14T04:17:45.658Z,4.07
2019-05-14T04:20:15.221Z,4.00
2019-05-14T04:22:50.054Z,4.30
2019-05-14T04:25:19.546Z,3.87
2019-05-14T04:27:52.240Z,4.10
2019-05-14T04:30:24.374Z,3.73
2019-05-14T04:32:59.148Z,4.10
2019-05-14T04:35:29.622Z,3.80
2019-05-14T04:37:58.964Z,4.13
2019-05-14T04:40:29.702Z,3.87
2019-05-14T04:42:59.358Z,3.50
2019-05-14T04:45:29.802Z,3.93
2019-05-14T04:48:00.396Z,4.00
2019-05-14T04:50:30.033Z,3.70
2019-05-14T04:53:00.031Z,4.03
2019-05-14T04:55:30.722Z,3.80
2019-05-14T04:58:00.439Z,3.63
2019-05-14T05:00:30.747Z,3.87
2019-05-14T05:03:00.381Z,3.77
2019-05-14T05:05:31.289Z,3.70
2019-05-14T05:08:00.922Z,3.60
2019-05-14T05:10:30.395Z,3.20
2019-05-14T05:12:59.831Z,3.43
2019-05-14T05:15:29.393Z,3.10
2019-05-14T05:17:59.158Z,3.63
2019-05-14T05:20:29.337Z,3.50
2019-05-14T05:22:59.173Z,3.50
2019-05-14T05:25:29.322Z,3.27
2019-05-14T05:27:59.778Z,3.00
2019-05-14T05:30:29.642Z,2.67
2019-05-14T05:32:59.788Z,2.73
2019-05-14T05:35:29.450Z,3.10
2019-05-14T05:37:58.849Z,3.03
2019-05-14T05:40:28.856Z,2.20
2019-05-14T05:42:58.460Z,2.40
2019-05-14T05:45:29.016Z,2.80
2019-05-14T05:48:01.625Z,2.67
2019-05-14T05:50:29.954Z,2.30
2019-05-14T05:53:00.005Z,2.70
2019-05-14T05:55:29.832Z,2.73
2019-05-14T05:57:59.224Z,2.23
2019-05-14T06:00:34.853Z,2.17
2019-05-14T06:03:04.866Z,3.33
2019-05-14T06:05:35.524Z,2.27
2019-05-14T06:08:05.160Z,2.00
2019-05-14T06:10:34.756Z,2.37
2019-05-14T06:13:04.639Z,2.40
2019-05-14T06:15:45.781Z,2.13
2019-05-14T06:18:15.216Z,1.90
2019-05-14T06:20:38.750Z,2.50
2019-05-14T06:23:08.552Z,2.13
2019-05-14T06:25:39.981Z,2.20
2019-05-14T06:28:09.430Z,1.80
2019-05-14T06:30:40.301Z,2.33
2019-05-14T06:33:09.715Z,2.10
2019-05-14T06:35:39.850Z,1.93
2019-05-14T06:38:09.483Z,2.03
2019-05-14T06:40:39.703Z,2.00
2019-05-14T06:43:09.342Z,1.90
2019-05-14T06:45:39.230Z,1.70
2019-05-14T06:48:08.912Z,2.00
2019-05-14T06:50:39.406Z,2.13
2019-05-14T06:53:08.942Z,1.90
2019-05-14T06:55:39.269Z,1.97
2019-05-14T06:58:09.304Z,2.03
2019-05-14T07:00:39.599Z,1.77
2019-05-14T07:03:09.181Z,1.70
2019-05-14T07:05:39.146Z,1.60
2019-05-14T07:08:09.212Z,1.53
2019-05-14T07:10:39.553Z,1.70
2019-05-14T07:13:09.054Z,1.40
2019-05-14T07:15:38.859Z,2.10
2019-05-14T07:18:08.719Z,1.77
2019-05-14T07:20:39.146Z,1.80
2019-05-14T07:23:08.901Z,1.90
2019-05-14T07:25:39.279Z,1.83
2019-05-14T07:28:09.044Z,1.80
2019-05-14T07:30:41.386Z,1.93
2019-05-14T07:33:10.840Z,2.23
2019-05-14T07:35:40.442Z,2.20
2019-05-14T07:38:10.012Z,2.17
2019-05-14T07:40:39.518Z,2.50
2019-05-14T07:43:09.273Z,2.50
2019-05-14T07:45:39.260Z,2.30
2019-05-14T07:48:09.672Z,2.40
2019-05-14T07:50:39.915Z,2.43
2019-05-14T07:53:09.582Z,2.07
2019-05-14T07:55:39.090Z,2.37
2019-05-14T07:58:08.564Z,2.30
2019-05-14T08:00:41.439Z,2.27
2019-05-14T08:03:09.283Z,2.33
2019-05-14T08:05:39.205Z,2.40
2019-05-14T08:08:10.306Z,2.30
2019-05-14T08:10:39.839Z,2.47
2019-05-14T08:13:09.283Z,2.30
2019-05-14T08:15:38.858Z,2.33
2019-05-14T08:18:08.570Z,2.13
2019-05-14T08:20:38.178Z,2.27
2019-05-14T08:23:09.055Z,2.43
2019-05-14T08:25:39.092Z,2.70
2019-05-14T08:28:08.744Z,2.10
2019-05-14T08:30:38.886Z,2.37
2019-05-14T08:33:09.015Z,2.40
2019-05-14T08:35:39.559Z,2.20
2019-05-14T08:38:12.086Z,2.50
2019-05-14T08:40:40.426Z,3.00
2019-05-14T08:43:10.104Z,2.20
2019-05-14T08:45:39.542Z,2.80
2019-05-14T08:48:09.304Z,2.60
2019-05-14T08:50:38.969Z,2.00
2019-05-14T08:53:09.175Z,2.30
2019-05-14T08:55:39.519Z,2.13
2019-05-14T08:58:13.589Z,2.23
2019-05-14T09:00:43.611Z,2.30
2019-05-14T09:03:13.194Z,2.37
2019-05-14T09:05:42.859Z,2.20
2019-05-14T09:08:12.286Z,2.47
2019-05-14T09:10:41.730Z,1.90
2019-05-14T09:13:11.158Z,1.87
2019-05-14T09:15:40.598Z,2.20
2019-05-14T09:18:11.671Z,2.00
2019-05-14T09:20:41.464Z,2.30
2019-05-14T09:23:10.904Z,2.00
2019-05-14T09:25:47.848Z,2.40
2019-05-14T09:28:11.539Z,2.20
2019-05-14T09:30:41.202Z,2.80
2019-05-14T09:33:10.791Z,2.13
2019-05-14T09:35:40.272Z,4.30
2019-05-14T09:38:09.721Z,2.90
2019-05-14T09:40:39.903Z,2.90
2019-05-14T09:43:09.543Z,2.20
2019-05-14T09:45:39.686Z,2.33
2019-05-14T09:48:09.183Z,2.27
2019-05-14T09:50:38.865Z,2.13
2019-05-14T09:53:09.666Z,2.30
2019-05-14T09:55:39.366Z,2.20
2019-05-14T09:58:08.958Z,2.70
2019-05-14T10:00:39.204Z,2.50
2019-05-14T10:03:09.817Z,2.30
2019-05-14T10:05:39.407Z,2.07
2019-05-14T10:08:09.708Z,2.10
2019-05-14T10:10:39.945Z,2.00
2019-05-14T10:13:10.009Z,2.00
2019-05-14T10:15:39.527Z,1.77
2019-05-14T10:18:11.770Z,2.00
2019-05-14T10:20:45.546Z,1.80
2019-05-14T10:23:11.167Z,1.80
2019-05-14T10:25:42.443Z,1.90
2019-05-14T10:28:12.016Z,2.10
2019-05-14T10:30:41.459Z,2.30
2019-05-14T10:33:15.005Z,1.97
2019-05-14T10:35:42.274Z,2.00
2019-05-14T10:38:11.888Z,1.90
2019-05-14T10:40:41.555Z,2.00
2019-05-14T10:43:10.963Z,2.10
2019-05-14T10:45:40.499Z,1.83
2019-05-14T10:48:09.908Z,1.90
2019-05-14T10:50:55.658Z,1.70
2019-05-14T10:53:10.423Z,1.80
2019-05-14T10:55:39.999Z,2.07
2019-05-14T10:58:09.404Z,2.00
2019-05-14T11:00:41.803Z,1.93
2019-05-14T11:03:10.033Z,1.90
2019-05-14T11:05:41.548Z,1.90
2019-05-14T11:08:11.948Z,1.77
2019-05-14T11:10:42.596Z,1.87
2019-05-14T11:13:12.237Z,1.90
2019-05-14T11:15:41.717Z,1.83
2019-05-14T11:18:11.103Z,1.70
2019-05-14T11:20:42.122Z,1.70
2019-05-14T11:23:12.006Z,1.80
2019-05-14T11:25:41.585Z,1.80
2019-05-14T11:28:12.970Z,1.70
2019-05-14T11:30:42.448Z,1.70
2019-05-14T11:33:11.975Z,1.73
2019-05-14T11:35:41.368Z,1.93
2019-05-14T11:38:27.911Z,2.10
2019-05-14T11:40:42.401Z,1.93
2019-05-14T11:43:11.848Z,1.73
2019-05-14T11:45:41.235Z,1.70
2019-05-14T11:48:10.734Z,1.70
2019-05-14T11:50:40.203Z,1.90
2019-05-14T11:53:09.640Z,1.90
2019-05-14T11:55:39.043Z,1.80
2019-05-14T11:58:08.847Z,1.70
2019-05-14T12:00:38.862Z,1.80
2019-05-14T12:03:09.292Z,1.70
2019-05-14T12:05:38.989Z,2.20
2019-05-14T12:08:08.717Z,1.53
2019-05-14T12:10:38.827Z,1.90
2019-05-14T12:13:08.714Z,1.60
2019-05-14T12:15:38.826Z,2.00
2019-05-14T12:18:10.420Z,1.80
2019-05-14T12:20:39.881Z,1.93
2019-05-14T12:23:09.370Z,1.70
2019-05-14T12:25:39.047Z,2.00
2019-05-14T12:28:13.637Z,2.10
2019-05-14T12:30:39.805Z,2.10
2019-05-14T12:33:09.251Z,2.27
2019-05-14T12:35:40.244Z,1.67
2019-05-14T12:38:11.685Z,2.00
2019-05-14T12:40:42.827Z,1.90
2019-05-14T12:43:12.375Z,1.57
2019-05-14T12:45:41.838Z,2.00
2019-05-14T12:48:11.367Z,1.70
2019-05-14T12:50:40.790Z,1.90
2019-05-14T12:53:10.378Z,1.60
2019-05-14T12:55:40.341Z,1.43
2019-05-14T12:58:09.962Z,1.60
2019-05-14T13:00:39.661Z,1.70
2019-05-14T13:03:09.320Z,1.50
2019-05-14T13:05:38.907Z,1.80
2019-05-14T13:08:11.442Z,2.00
2019-05-14T13:10:41.286Z,1.80
2019-05-14T13:13:10.734Z,1.93
2019-05-14T13:15:40.267Z,1.93
2019-05-14T13:18:09.702Z,1.70
2019-05-14T13:20:39.125Z,18.37
2019-05-14T13:23:10.110Z,2.30
2019-05-14T13:25:39.836Z,1.83
2019-05-14T13:28:09.329Z,1.90
2019-05-14T13:30:38.775Z,1.63
2019-05-14T13:33:08.977Z,1.90
2019-05-14T13:35:40.038Z,2.00
2019-05-14T13:38:14.426Z,1.73
2019-05-14T13:40:40.845Z,1.90
2019-05-14T13:43:14.145Z,2.20
2019-05-14T13:45:41.487Z,1.97
2019-05-14T13:48:12.585Z,1.83
2019-05-14T13:50:42.020Z,2.20
2019-05-14T13:53:12.993Z,1.80
2019-05-14T13:55:45.758Z,1.73
2019-05-14T13:58:14.128Z,2.20
2019-05-14T14:00:43.574Z,2.17
2019-05-14T14:03:12.976Z,2.50
2019-05-14T14:05:42.407Z,2.20
2019-05-14T14:08:11.806Z,2.27
2019-05-14T14:10:45.232Z,2.03
2019-05-14T14:13:19.839Z,2.30
2019-05-14T14:15:49.032Z,2.77
2019-05-14T14:18:20.944Z,2.40
2019-05-14T14:20:49.781Z,2.33
2019-05-14T14:23:26.964Z,2.40
2019-05-14T14:25:54.759Z,2.33
2019-05-14T14:28:23.180Z,2.30
2019-05-14T14:30:52.865Z,2.00
2019-05-14T14:33:22.289Z,2.40
2019-05-14T14:35:51.796Z,1.83
2019-05-14T14:38:21.237Z,1.70
2019-05-14T14:40:50.746Z,2.00
2019-05-14T14:43:20.197Z,1.57
2019-05-14T14:45:51.356Z,1.90
2019-05-14T14:48:21.739Z,1.90
2019-05-14T14:50:51.264Z,1.60
2019-05-14T14:53:39.755Z,1.50
2019-05-14T14:55:51.846Z,1.70
2019-05-14T14:58:21.260Z,1.60
2019-05-14T15:00:50.721Z,1.70
2019-05-14T15:03:21.262Z,2.00
2019-05-14T15:05:51.037Z,1.77
2019-05-14T15:08:20.911Z,1.50
2019-05-14T15:10:50.315Z,1.60
2019-05-14T15:13:21.637Z,1.53
2019-05-14T15:15:51.209Z,1.60
2019-05-14T15:18:21.159Z,1.73
2019-05-14T15:20:50.827Z,1.63
2019-05-14T15:23:20.263Z,1.63
2019-05-14T15:25:49.664Z,1.70
2019-05-14T15:28:21.153Z,2.13
2019-05-14T15:30:50.599Z,1.77
2019-05-14T15:33:19.994Z,2.03
2019-05-14T15:35:49.427Z,2.10
2019-05-14T15:38:18.855Z,1.87
2019-05-14T15:40:48.995Z,1.73
2019-05-14T15:43:18.868Z,1.80
2019-05-14T15:45:48.460Z,1.90
2019-05-14T15:48:19.986Z,1.47
2019-05-14T15:50:50.186Z,1.60
2019-05-14T15:53:19.822Z,1.60
2019-05-14T15:55:50.104Z,1.60
2019-05-14T15:58:21.509Z,1.60
2019-05-14T16:00:50.802Z,1.50
2019-05-14T16:03:20.200Z,1.30
2019-05-14T16:05:51.185Z,1.60
2019-05-14T16:08:22.932Z,1.80
2019-05-14T16:10:52.059Z,1.50
2019-05-14T16:13:21.465Z,1.37
2019-05-14T16:15:50.900Z,1.50
2019-05-14T16:18:22.406Z,1.30
2019-05-14T16:20:51.503Z,1.40
2019-05-14T16:23:22.642Z,1.13
2019-05-14T16:25:52.241Z,1.50
2019-05-14T16:28:21.700Z,1.40
2019-05-14T16:30:51.134Z,1.43
2019-05-14T16:33:22.104Z,1.40
2019-05-14T16:35:51.583Z,1.60
2019-05-14T16:38:23.061Z,1.77
2019-05-14T16:40:52.150Z,1.70
2019-05-14T16:43:23.111Z,1.50
2019-05-14T16:45:52.870Z,1.47
2019-05-14T16:48:22.312Z,1.50
2019-05-14T16:50:51.741Z,1.33
2019-05-14T16:53:21.300Z,1.43
2019-05-14T16:55:50.753Z,1.50
2019-05-14T16:58:20.188Z,1.60
2019-05-14T17:00:49.838Z,1.33
2019-05-14T17:03:19.386Z,1.60
2019-05-14T17:05:48.882Z,1.83
2019-05-14T17:08:19.027Z,1.80
2019-05-14T17:10:48.671Z,1.40
2019-05-14T17:13:18.396Z,1.80
2019-05-14T17:15:48.203Z,1.47
2019-05-14T17:18:19.272Z,1.50
2019-05-14T17:20:49.004Z,1.53
2019-05-14T17:23:19.272Z,1.53
2019-05-14T17:25:50.418Z,1.53
2019-05-14T17:28:21.328Z,1.30
2019-05-14T17:30:50.782Z,1.60
2019-05-14T17:33:20.357Z,1.50
2019-05-14T17:35:49.790Z,1.53
2019-05-14T17:38:19.308Z,1.50
2019-05-14T17:40:49.016Z,1.50
2019-05-14T17:43:20.143Z,1.40
2019-05-14T17:45:50.364Z,1.40
2019-05-14T17:48:19.808Z,1.73
2019-05-14T17:50:50.847Z,1.90
2019-05-14T17:53:20.306Z,1.60
2019-05-14T17:55:52.759Z,1.50
2019-05-14T17:58:22.390Z,1.43
2019-05-14T18:00:51.900Z,1.47
2019-05-14T18:03:21.716Z,1.50
2019-05-14T18:05:51.206Z,1.60
2019-05-14T18:08:22.329Z,1.63
2019-05-14T18:10:51.740Z,1.80
2019-05-14T18:13:21.198Z,1.87
2019-05-14T18:15:50.830Z,1.60
2019-05-14T18:18:20.344Z,1.50
2019-05-14T18:20:49.747Z,1.97
2019-05-14T18:23:19.242Z,1.60
2019-05-14T18:26:03.398Z,1.63
2019-05-14T18:28:19.800Z,1.97
2019-05-14T18:30:49.230Z,2.03
2019-05-14T18:33:18.911Z,1.90
2019-05-14T18:35:51.355Z,2.03
2019-05-14T18:38:22.761Z,1.90
2019-05-14T18:40:52.228Z,1.90
2019-05-14T18:43:21.646Z,2.17
2019-05-14T18:45:51.079Z,2.03
2019-05-14T18:48:20.532Z,1.87
2019-05-14T18:50:50.145Z,1.97
2019-05-14T18:53:19.676Z,2.00
2019-05-14T18:55:49.192Z,1.87
2019-05-14T18:58:19.520Z,1.97
2019-05-14T19:00:49.226Z,2.30
2019-05-14T19:03:20.609Z,2.10
2019-05-14T19:05:50.038Z,2.03
2019-05-14T19:08:19.427Z,2.17
2019-05-14T19:10:49.578Z,2.17
2019-05-14T19:13:19.405Z,2.17
2019-05-14T19:15:48.933Z,2.53
2019-05-14T19:18:19.240Z,2.10
2019-05-14T19:20:48.828Z,2.33
2019-05-14T19:23:18.873Z,2.37
2019-05-14T19:25:48.584Z,2.70
2019-05-14T19:28:18.766Z,2.27
2019-05-14T19:30:48.921Z,2.07
2019-05-14T19:33:20.607Z,2.10
2019-05-14T19:35:49.900Z,2.00
2019-05-14T19:38:19.342Z,2.43
2019-05-14T19:40:48.758Z,2.70
2019-05-14T19:43:19.054Z,2.60
2019-05-14T19:45:48.761Z,2.50
2019-05-14T19:48:19.029Z,2.40
2019-05-14T19:50:50.137Z,2.60
2019-05-14T19:53:19.580Z,2.93
2019-05-14T19:55:48.979Z,2.60
2019-05-14T19:58:20.075Z,2.93
2019-05-14T20:00:50.053Z,3.37
2019-05-14T20:03:20.672Z,3.63
2019-05-14T20:05:50.031Z,3.00
2019-05-14T20:08:19.468Z,2.90
2019-05-14T20:10:49.170Z,3.00
2019-05-14T20:13:19.455Z,3.10
2019-05-14T20:15:49.090Z,2.90
2019-05-14T20:18:18.533Z,2.93
2019-05-14T20:20:49.252Z,2.90
2019-05-14T20:23:18.839Z,2.90
2019-05-14T20:25:48.364Z,2.90
2019-05-14T20:28:19.013Z,2.83
2019-05-14T20:30:49.422Z,2.90
2019-05-14T20:33:19.259Z,3.00
2019-05-14T20:35:48.931Z,3.13
2019-05-14T20:38:18.737Z,2.80
2019-05-14T20:40:48.721Z,2.83
2019-05-14T20:43:18.782Z,2.97
2019-05-14T20:45:48.961Z,3.07
2019-05-14T20:48:19.440Z,3.00
2019-05-14T20:50:48.835Z,3.00
2019-05-14T20:53:18.782Z,2.80
2019-05-14T20:55:48.374Z,3.40
2019-05-14T20:58:19.853Z,2.80
2019-05-14T21:00:48.963Z,2.83
2019-05-14T21:03:20.129Z,2.90
2019-05-14T21:05:49.592Z,3.40
2019-05-14T21:08:20.792Z,2.83
2019-05-14T21:10:50.198Z,2.80
2019-05-14T21:13:19.666Z,3.20
2019-05-14T21:15:49.082Z,3.20
2019-05-14T21:18:19.074Z,3.03
2019-05-14T21:20:49.097Z,3.23
2019-05-14T21:23:18.951Z,3.20
2019-05-14T21:25:48.506Z,3.10
2019-05-14T21:28:18.024Z,3.10
2019-05-14T21:30:48.521Z,3.10
2019-05-14T21:33:18.199Z,3.60
2019-05-14T21:35:48.485Z,3.23
2019-05-14T21:38:19.216Z,3.30
2019-05-14T21:40:49.952Z,3.37
2019-05-14T21:43:19.635Z,3.10
2019-05-14T21:45:49.101Z,2.93
2019-05-14T21:48:19.933Z,2.90
2019-05-14T21:50:49.718Z,2.77
2019-05-14T21:53:19.782Z,3.10
2019-05-14T21:55:49.259Z,2.80
2019-05-14T21:58:19.826Z,2.60
2019-05-14T22:00:52.715Z,2.50
2019-05-14T22:03:22.308Z,2.70
2019-05-14T22:05:51.900Z,3.13
2019-05-14T22:08:21.497Z,3.10
2019-05-14T22:10:50.983Z,2.77
2019-05-14T22:13:20.442Z,3.03
2019-05-14T22:15:49.969Z,3.00
2019-05-14T22:18:20.772Z,2.50
2019-05-14T22:20:50.746Z,2.77
2019-05-14T22:23:21.388Z,2.93
2019-05-14T22:25:50.854Z,2.90
2019-05-14T22:28:20.297Z,3.10
2019-05-14T22:30:49.735Z,2.77
2019-05-14T22:33:19.321Z,2.90
2019-05-14T22:35:48.946Z,3.20
2019-05-14T22:38:20.357Z,3.70
2019-05-14T22:40:49.938Z,3.50
2019-05-14T22:43:19.407Z,3.20
2019-05-14T22:46:09.641Z,3.37
2019-05-14T22:48:39.106Z,3.20
2019-05-14T22:51:08.796Z,3.60
2019-05-14T22:53:39.011Z,3.70
2019-05-14T22:56:08.602Z,4.10
2019-05-14T22:58:38.490Z,4.03
2019-05-14T23:01:14.736Z,3.83
2019-05-14T23:03:39.887Z,3.27
2019-05-14T23:06:09.323Z,3.90
2019-05-14T23:08:39.284Z,3.53
2019-05-14T23:11:08.875Z,3.53
2019-05-14T23:13:39.149Z,3.87
2019-05-14T23:16:09.055Z,3.60
2019-05-14T23:18:38.464Z,3.40
2019-05-14T23:21:09.117Z,3.77
2019-05-14T23:23:39.393Z,3.93
2019-05-14T23:26:08.944Z,4.30
2019-05-14T23:28:44.744Z,4.07
2019-05-14T23:31:09.510Z,4.20
2019-05-14T23:33:39.087Z,3.60
2019-05-14T23:36:08.922Z,3.87
2019-05-14T23:38:44.905Z,3.87
2019-05-14T23:41:14.474Z,4.03
2019-05-14T23:43:48.425Z,3.80
2019-05-14T23:46:18.306Z,4.10
2019-05-14T23:48:48.609Z,3.80
2019-05-14T23:51:18.395Z,4.53
2019-05-14T23:53:48.376Z,3.80
2019-05-14T23:56:19.427Z,4.40
2019-05-14T23:58:55.694Z,3.80
